sensor_id;sensor_type;location;lat;lon;timestamp;P1;durP1;ratioP1;P2;durP2;ratioP2
52184;SDS011;38160;52.876;18.778;2023-03-05T11:16:02;23.80;;;14.70;;
52184;SDS011;38160;52.876;18.778;2023-03-05T11:18:43;19.20;;;12.70;;
52184;SDS011;38160;52.876;18.778;2023-03-05T11:21:21;21.70;;;13.40;;
52184;SDS011;38160;52.876;18.778;2023-03-05T11:24:08;26.40;;;15.10;;
52184;SDS011;38160;52.876;18.778;2023-03-05T11:26:48;23.20;;;14.50;;
52184;SDS011;38160;52.876;18.778;2023-03-05T11:29:26;24.20;;;14.90;;
52184;SDS011;38160;52.876;18.778;2023-03-05T11:32:18;24.70;;;14.20;;
52184;SDS011;38160;52.876;18.778;2023-03-05T11:34:57;21.50;;;12.50;;
52184;SDS011;38160;52.876;18.778;2023-03-05T11:37:33;19.40;;;12.90;;
52184;SDS011;38160;52.876;18.778;2023-03-05T11:40:19;19.60;;;11.40;;
52184;SDS011;38160;52.876;18.778;2023-03-05T11:45:52;19.40;;;12.10;;
52184;SDS011;38160;52.876;18.778;2023-03-05T11:48:35;22.00;;;12.20;;
52184;SDS011;38160;52.876;18.778;2023-03-05T11:51:14;24.60;;;15.50;;
52184;SDS011;38160;52.876;18.778;2023-03-05T11:53:55;15.70;;;10.30;;
52184;SDS011;38160;52.876;18.778;2023-03-05T11:56:40;14.40;;;8.70;;
52184;SDS011;38160;52.876;18.778;2023-03-05T11:59:19;17.20;;;9.30;;
52184;SDS011;38160;52.876;18.778;2023-03-05T12:02:00;17.10;;;8.40;;
52184;SDS011;38160;52.876;18.778;2023-03-05T12:04:36;13.00;;;7.80;;
52184;SDS011;38160;52.876;18.778;2023-03-05T12:07:14;12.30;;;7.00;;
52184;SDS011;38160;52.876;18.778;2023-03-05T12:09:54;11.60;;;6.90;;
52184;SDS011;38160;52.876;18.778;2023-03-05T12:12:35;12.10;;;7.80;;
52184;SDS011;38160;52.876;18.778;2023-03-05T12:15:27;16.30;;;8.80;;
52184;SDS011;38160;52.876;18.778;2023-03-05T12:18:16;16.30;;;8.60;;
52184;SDS011;38160;52.876;18.778;2023-03-05T12:21:05;14.90;;;9.00;;
52184;SDS011;38160;52.876;18.778;2023-03-05T12:23:50;18.30;;;10.40;;
52184;SDS011;38160;52.876;18.778;2023-03-05T12:29:39;18.20;;;11.10;;
52184;SDS011;38160;52.876;18.778;2023-03-05T12:35:36;19.10;;;11.00;;
52184;SDS011;38160;52.876;18.778;2023-03-05T12:44:22;19.50;;;11.50;;
52184;SDS011;38160;52.876;18.778;2023-03-05T12:47:18;16.70;;;11.90;;
52184;SDS011;38160;52.876;18.778;2023-03-05T12:49:55;19.30;;;11.60;;
52184;SDS011;38160;52.876;18.778;2023-03-05T12:52:32;20.00;;;11.90;;
52184;SDS011;38160;52.876;18.778;2023-03-05T12:55:18;19.50;;;12.50;;
52184;SDS011;38160;52.876;18.778;2023-03-05T12:58:02;19.80;;;11.80;;
52184;SDS011;38160;52.876;18.778;2023-03-05T13:00:45;22.10;;;12.00;;
52184;SDS011;38160;52.876;18.778;2023-03-05T13:03:25;19.10;;;10.10;;
52184;SDS011;38160;52.876;18.778;2023-03-05T13:06:04;18.80;;;11.80;;
52184;SDS011;38160;52.876;18.778;2023-03-05T13:08:56;18.40;;;11.70;;
52184;SDS011;38160;52.876;18.778;2023-03-05T13:11:35;19.10;;;12.00;;
52184;SDS011;38160;52.876;18.778;2023-03-05T13:17:34;22.90;;;13.10;;
52184;SDS011;38160;52.876;18.778;2023-03-05T13:20:29;21.40;;;14.10;;
52184;SDS011;38160;52.876;18.778;2023-03-05T13:23:20;18.80;;;12.30;;
52184;SDS011;38160;52.876;18.778;2023-03-05T13:25:59;24.00;;;12.80;;
52184;SDS011;38160;52.876;18.778;2023-03-05T13:28:43;21.90;;;11.90;;
52184;SDS011;38160;52.876;18.778;2023-03-05T13:31:38;19.80;;;12.70;;
52184;SDS011;38160;52.876;18.778;2023-03-05T13:34:17;19.70;;;11.90;;
52184;SDS011;38160;52.876;18.778;2023-03-05T13:36:58;24.10;;;13.70;;
52184;SDS011;38160;52.876;18.778;2023-03-05T13:39:37;21.90;;;13.80;;
52184;SDS011;38160;52.876;18.778;2023-03-05T13:42:17;25.00;;;14.30;;
52184;SDS011;38160;52.876;18.778;2023-03-05T13:44:57;25.00;;;14.70;;
52184;SDS011;38160;52.876;18.778;2023-03-05T13:47:34;23.00;;;14.60;;
52184;SDS011;38160;52.876;18.778;2023-03-05T13:50:21;21.30;;;12.90;;
52184;SDS011;38160;52.876;18.778;2023-03-05T13:55:51;26.70;;;14.70;;
52184;SDS011;38160;52.876;18.778;2023-03-05T13:58:46;27.90;;;14.80;;
52184;SDS011;38160;52.876;18.778;2023-03-05T14:01:28;23.40;;;13.60;;
52184;SDS011;38160;52.876;18.778;2023-03-05T14:04:16;24.70;;;14.20;;
52184;SDS011;38160;52.876;18.778;2023-03-05T14:06:56;24.60;;;12.60;;
52184;SDS011;38160;52.876;18.778;2023-03-05T14:09:43;23.40;;;12.80;;
52184;SDS011;38160;52.876;18.778;2023-03-05T14:12:23;25.10;;;12.80;;
52184;SDS011;38160;52.876;18.778;2023-03-05T14:15:03;29.80;;;11.50;;
52184;SDS011;38160;52.876;18.778;2023-03-05T14:17:58;20.80;;;11.10;;
52184;SDS011;38160;52.876;18.778;2023-03-05T14:20:59;17.70;;;9.90;;
52184;SDS011;38160;52.876;18.778;2023-03-05T14:23:38;21.50;;;10.10;;
52184;SDS011;38160;52.876;18.778;2023-03-05T14:26:20;20.50;;;10.20;;
52184;SDS011;38160;52.876;18.778;2023-03-05T14:29:00;16.00;;;9.80;;
52184;SDS011;38160;52.876;18.778;2023-03-05T14:31:45;17.00;;;9.20;;
52184;SDS011;38160;52.876;18.778;2023-03-05T14:34:26;19.00;;;9.10;;
52184;SDS011;38160;52.876;18.778;2023-03-05T14:37:06;16.90;;;7.50;;
52184;SDS011;38160;52.876;18.778;2023-03-05T14:39:59;17.70;;;8.70;;
52184;SDS011;38160;52.876;18.778;2023-03-05T14:42:48;16.70;;;7.50;;
52184;SDS011;38160;52.876;18.778;2023-03-05T14:45:26;15.40;;;8.80;;
52184;SDS011;38160;52.876;18.778;2023-03-05T14:48:04;29.30;;;13.60;;
52184;SDS011;38160;52.876;18.778;2023-03-05T14:50:42;15.60;;;7.50;;
52184;SDS011;38160;52.876;18.778;2023-03-05T14:53:24;9.80;;;5.80;;
52184;SDS011;38160;52.876;18.778;2023-03-05T14:56:05;15.20;;;6.40;;
52184;SDS011;38160;52.876;18.778;2023-03-05T14:58:51;11.60;;;6.30;;
52184;SDS011;38160;52.876;18.778;2023-03-05T15:01:27;9.10;;;5.00;;
52184;SDS011;38160;52.876;18.778;2023-03-05T15:04:03;7.60;;;4.70;;
52184;SDS011;38160;52.876;18.778;2023-03-05T15:06:39;8.00;;;4.50;;
52184;SDS011;38160;52.876;18.778;2023-03-05T15:09:20;10.80;;;4.60;;
52184;SDS011;38160;52.876;18.778;2023-03-05T15:11:55;9.80;;;4.30;;
52184;SDS011;38160;52.876;18.778;2023-03-05T15:14:31;8.30;;;4.80;;
52184;SDS011;38160;52.876;18.778;2023-03-05T15:17:20;16.80;;;5.20;;
52184;SDS011;38160;52.876;18.778;2023-03-05T15:20:09;9.20;;;5.40;;
52184;SDS011;38160;52.876;18.778;2023-03-05T15:22:47;9.20;;;4.90;;
52184;SDS011;38160;52.876;18.778;2023-03-05T15:25:24;9.40;;;5.00;;
52184;SDS011;38160;52.876;18.778;2023-03-05T15:28:01;9.30;;;5.10;;
52184;SDS011;38160;52.876;18.778;2023-03-05T15:30:38;15.00;;;5.10;;
52184;SDS011;38160;52.876;18.778;2023-03-05T15:33:17;16.60;;;5.60;;
52184;SDS011;38160;52.876;18.778;2023-03-05T15:35:55;14.40;;;5.50;;
52184;SDS011;38160;52.876;18.778;2023-03-05T15:38:31;13.30;;;5.90;;
52184;SDS011;38160;52.876;18.778;2023-03-05T15:41:07;11.90;;;6.20;;
52184;SDS011;38160;52.876;18.778;2023-03-05T15:43:43;9.30;;;5.80;;
52184;SDS011;38160;52.876;18.778;2023-03-05T15:46:19;11.30;;;6.20;;
52184;SDS011;38160;52.876;18.778;2023-03-05T15:48:55;12.10;;;6.40;;
52184;SDS011;38160;52.876;18.778;2023-03-05T15:51:31;13.80;;;7.10;;
52184;SDS011;38160;52.876;18.778;2023-03-05T15:54:08;12.50;;;6.50;;
52184;SDS011;38160;52.876;18.778;2023-03-05T15:56:44;13.60;;;7.10;;
52184;SDS011;38160;52.876;18.778;2023-03-05T15:59:20;13.30;;;7.50;;
52184;SDS011;38160;52.876;18.778;2023-03-05T16:01:57;14.60;;;7.00;;
52184;SDS011;38160;52.876;18.778;2023-03-05T16:04:33;14.80;;;7.10;;
52184;SDS011;38160;52.876;18.778;2023-03-05T16:07:09;15.70;;;6.90;;
52184;SDS011;38160;52.876;18.778;2023-03-05T16:09:46;15.80;;;7.50;;
52184;SDS011;38160;52.876;18.778;2023-03-05T16:12:25;12.10;;;6.20;;
52184;SDS011;38160;52.876;18.778;2023-03-05T16:15:10;11.80;;;6.30;;
52184;SDS011;38160;52.876;18.778;2023-03-05T16:17:50;14.20;;;6.90;;
52184;SDS011;38160;52.876;18.778;2023-03-05T16:20:29;13.10;;;7.40;;
52184;SDS011;38160;52.876;18.778;2023-03-05T16:23:05;14.40;;;8.10;;
52184;SDS011;38160;52.876;18.778;2023-03-05T16:25:41;13.70;;;7.20;;
52184;SDS011;38160;52.876;18.778;2023-03-05T16:28:18;13.90;;;7.70;;
52184;SDS011;38160;52.876;18.778;2023-03-05T16:30:54;11.60;;;7.30;;
52184;SDS011;38160;52.876;18.778;2023-03-05T16:33:31;13.80;;;8.10;;
52184;SDS011;38160;52.876;18.778;2023-03-05T16:36:18;13.10;;;8.00;;
52184;SDS011;38160;52.876;18.778;2023-03-05T16:38:58;12.40;;;7.30;;
52184;SDS011;38160;52.876;18.778;2023-03-05T16:41:35;11.60;;;7.00;;
52184;SDS011;38160;52.876;18.778;2023-03-05T16:44:11;29.20;;;16.50;;
52184;SDS011;38160;52.876;18.778;2023-03-05T16:46:48;42.10;;;25.30;;
52184;SDS011;38160;52.876;18.778;2023-03-05T16:49:25;12.10;;;7.20;;
52184;SDS011;38160;52.876;18.778;2023-03-05T16:52:01;11.40;;;6.20;;
52184;SDS011;38160;52.876;18.778;2023-03-05T16:54:38;11.80;;;6.00;;
52184;SDS011;38160;52.876;18.778;2023-03-05T16:57:14;11.60;;;6.80;;
52184;SDS011;38160;52.876;18.778;2023-03-05T16:59:50;12.90;;;7.00;;
52184;SDS011;38160;52.876;18.778;2023-03-05T17:02:27;9.10;;;6.20;;
52184;SDS011;38160;52.876;18.778;2023-03-05T17:05:03;12.70;;;6.40;;
52184;SDS011;38160;52.876;18.778;2023-03-05T17:07:40;11.00;;;7.60;;
52184;SDS011;38160;52.876;18.778;2023-03-05T17:10:17;10.40;;;6.70;;
52184;SDS011;38160;52.876;18.778;2023-03-05T17:12:53;10.90;;;6.70;;
52184;SDS011;38160;52.876;18.778;2023-03-05T17:15:29;14.80;;;7.50;;
52184;SDS011;38160;52.876;18.778;2023-03-05T17:18:06;11.90;;;7.20;;
52184;SDS011;38160;52.876;18.778;2023-03-05T17:20:42;16.30;;;8.70;;
52184;SDS011;38160;52.876;18.778;2023-03-05T17:23:18;13.70;;;8.10;;
52184;SDS011;38160;52.876;18.778;2023-03-05T17:25:54;14.20;;;8.50;;
52184;SDS011;38160;52.876;18.778;2023-03-05T17:28:30;16.40;;;8.30;;
52184;SDS011;38160;52.876;18.778;2023-03-05T17:31:06;16.50;;;8.90;;
52184;SDS011;38160;52.876;18.778;2023-03-05T17:33:42;15.90;;;7.40;;
52184;SDS011;38160;52.876;18.778;2023-03-05T17:36:19;13.10;;;7.60;;
52184;SDS011;38160;52.876;18.778;2023-03-05T17:38:55;12.10;;;7.60;;
52184;SDS011;38160;52.876;18.778;2023-03-05T17:41:31;12.20;;;7.30;;
52184;SDS011;38160;52.876;18.778;2023-03-05T17:44:08;11.80;;;7.40;;
52184;SDS011;38160;52.876;18.778;2023-03-05T17:46:44;12.30;;;6.70;;
52184;SDS011;38160;52.876;18.778;2023-03-05T17:49:21;13.40;;;8.00;;
52184;SDS011;38160;52.876;18.778;2023-03-05T17:51:57;13.70;;;8.70;;
52184;SDS011;38160;52.876;18.778;2023-03-05T17:54:33;16.10;;;8.70;;
52184;SDS011;38160;52.876;18.778;2023-03-05T17:57:09;15.30;;;8.50;;
52184;SDS011;38160;52.876;18.778;2023-03-05T17:59:45;14.90;;;8.40;;
52184;SDS011;38160;52.876;18.778;2023-03-05T18:02:22;21.10;;;13.70;;
52184;SDS011;38160;52.876;18.778;2023-03-05T18:04:58;73.90;;;50.10;;
52184;SDS011;38160;52.876;18.778;2023-03-05T18:07:35;49.90;;;36.70;;
52184;SDS011;38160;52.876;18.778;2023-03-05T18:10:12;39.80;;;24.20;;
52184;SDS011;38160;52.876;18.778;2023-03-05T18:12:50;48.40;;;36.70;;
52184;SDS011;38160;52.876;18.778;2023-03-05T18:15:28;27.20;;;15.80;;
52184;SDS011;38160;52.876;18.778;2023-03-05T18:18:04;20.70;;;12.60;;
52184;SDS011;38160;52.876;18.778;2023-03-05T18:20:40;25.20;;;16.00;;
52184;SDS011;38160;52.876;18.778;2023-03-05T18:23:18;25.90;;;18.00;;
52184;SDS011;38160;52.876;18.778;2023-03-05T18:25:54;34.50;;;22.60;;
52184;SDS011;38160;52.876;18.778;2023-03-05T18:31:55;28.40;;;18.40;;
52184;SDS011;38160;52.876;18.778;2023-03-05T18:34:31;24.90;;;13.80;;
52184;SDS011;38160;52.876;18.778;2023-03-05T18:40:56;29.80;;;15.90;;
52184;SDS011;38160;52.876;18.778;2023-03-05T18:43:34;30.90;;;16.70;;
52184;SDS011;38160;52.876;18.778;2023-03-05T18:46:12;44.10;;;21.10;;
52184;SDS011;38160;52.876;18.778;2023-03-05T18:48:48;43.10;;;21.10;;
52184;SDS011;38160;52.876;18.778;2023-03-05T18:51:24;44.90;;;22.70;;
52184;SDS011;38160;52.876;18.778;2023-03-05T18:54:01;48.60;;;23.10;;
52184;SDS011;38160;52.876;18.778;2023-03-05T18:56:37;39.20;;;18.40;;
52184;SDS011;38160;52.876;18.778;2023-03-05T18:59:14;43.70;;;21.40;;
52184;SDS011;38160;52.876;18.778;2023-03-05T19:01:49;44.40;;;22.50;;
52184;SDS011;38160;52.876;18.778;2023-03-05T19:04:26;61.30;;;31.30;;
52184;SDS011;38160;52.876;18.778;2023-03-05T19:07:02;55.20;;;35.60;;
52184;SDS011;38160;52.876;18.778;2023-03-05T19:09:38;44.10;;;25.00;;
52184;SDS011;38160;52.876;18.778;2023-03-05T19:12:25;57.70;;;25.00;;
52184;SDS011;38160;52.876;18.778;2023-03-05T19:15:04;51.00;;;23.10;;
52184;SDS011;38160;52.876;18.778;2023-03-05T19:17:41;42.30;;;20.60;;
52184;SDS011;38160;52.876;18.778;2023-03-05T19:20:17;36.90;;;18.80;;
52184;SDS011;38160;52.876;18.778;2023-03-05T19:22:53;29.70;;;18.30;;
52184;SDS011;38160;52.876;18.778;2023-03-05T19:25:29;29.30;;;18.80;;
52184;SDS011;38160;52.876;18.778;2023-03-05T19:28:05;32.80;;;18.30;;
52184;SDS011;38160;52.876;18.778;2023-03-05T19:30:41;32.80;;;17.90;;
52184;SDS011;38160;52.876;18.778;2023-03-05T19:33:20;38.10;;;19.60;;
52184;SDS011;38160;52.876;18.778;2023-03-05T19:35:56;30.20;;;17.60;;
52184;SDS011;38160;52.876;18.778;2023-03-05T19:41:08;28.20;;;16.00;;
52184;SDS011;38160;52.876;18.778;2023-03-05T19:43:45;24.40;;;15.70;;
52184;SDS011;38160;52.876;18.778;2023-03-05T19:46:22;27.80;;;15.50;;
52184;SDS011;38160;52.876;18.778;2023-03-05T19:48:58;28.80;;;15.60;;
52184;SDS011;38160;52.876;18.778;2023-03-05T19:51:34;27.00;;;16.40;;
52184;SDS011;38160;52.876;18.778;2023-03-05T19:54:12;26.30;;;15.20;;
52184;SDS011;38160;52.876;18.778;2023-03-05T19:56:50;25.10;;;14.80;;
52184;SDS011;38160;52.876;18.778;2023-03-05T19:59:27;28.80;;;15.50;;
52184;SDS011;38160;52.876;18.778;2023-03-05T20:02:03;29.30;;;15.70;;
52184;SDS011;38160;52.876;18.778;2023-03-05T20:04:40;31.30;;;15.30;;
52184;SDS011;38160;52.876;18.778;2023-03-05T20:07:16;25.60;;;15.70;;
52184;SDS011;38160;52.876;18.778;2023-03-05T20:09:52;30.00;;;16.40;;
52184;SDS011;38160;52.876;18.778;2023-03-05T20:12:28;31.00;;;16.30;;
52184;SDS011;38160;52.876;18.778;2023-03-05T20:15:06;28.00;;;16.50;;
52184;SDS011;38160;52.876;18.778;2023-03-05T20:17:42;31.00;;;16.60;;
52184;SDS011;38160;52.876;18.778;2023-03-05T20:20:19;34.70;;;17.80;;
52184;SDS011;38160;52.876;18.778;2023-03-05T20:22:55;34.20;;;18.70;;
52184;SDS011;38160;52.876;18.778;2023-03-05T20:25:31;33.10;;;18.00;;
52184;SDS011;38160;52.876;18.778;2023-03-05T20:28:08;40.10;;;19.20;;
52184;SDS011;38160;52.876;18.778;2023-03-05T20:30:44;33.60;;;18.80;;
52184;SDS011;38160;52.876;18.778;2023-03-05T20:33:26;35.00;;;18.00;;
52184;SDS011;38160;52.876;18.778;2023-03-05T20:36:03;35.10;;;19.50;;
52184;SDS011;38160;52.876;18.778;2023-03-05T20:38:40;32.00;;;19.00;;
52184;SDS011;38160;52.876;18.778;2023-03-05T20:41:18;38.00;;;19.40;;
52184;SDS011;38160;52.876;18.778;2023-03-05T20:43:54;37.00;;;19.30;;
52184;SDS011;38160;52.876;18.778;2023-03-05T20:46:32;34.20;;;19.60;;
52184;SDS011;38160;52.876;18.778;2023-03-05T20:49:13;34.00;;;19.50;;
52184;SDS011;38160;52.876;18.778;2023-03-05T20:51:50;35.20;;;18.60;;
52184;SDS011;38160;52.876;18.778;2023-03-05T20:54:25;38.00;;;21.00;;
52184;SDS011;38160;52.876;18.778;2023-03-05T20:57:01;40.30;;;20.50;;
52184;SDS011;38160;52.876;18.778;2023-03-05T20:59:37;38.60;;;21.70;;
52184;SDS011;38160;52.876;18.778;2023-03-05T21:02:13;35.80;;;20.40;;
52184;SDS011;38160;52.876;18.778;2023-03-05T21:04:50;35.40;;;18.40;;
52184;SDS011;38160;52.876;18.778;2023-03-05T21:07:26;35.80;;;18.80;;
52184;SDS011;38160;52.876;18.778;2023-03-05T21:10:03;27.40;;;16.90;;
52184;SDS011;38160;52.876;18.778;2023-03-05T21:12:40;30.60;;;17.20;;
52184;SDS011;38160;52.876;18.778;2023-03-05T21:15:17;29.60;;;17.30;;
52184;SDS011;38160;52.876;18.778;2023-03-05T21:17:54;30.30;;;15.20;;
52184;SDS011;38160;52.876;18.778;2023-03-05T21:20:30;24.70;;;15.50;;
52184;SDS011;38160;52.876;18.778;2023-03-05T21:23:07;31.90;;;15.60;;
52184;SDS011;38160;52.876;18.778;2023-03-05T21:25:42;26.90;;;14.60;;
52184;SDS011;38160;52.876;18.778;2023-03-05T21:28:19;29.50;;;15.50;;
52184;SDS011;38160;52.876;18.778;2023-03-05T21:30:55;27.60;;;14.90;;
52184;SDS011;38160;52.876;18.778;2023-03-05T21:33:31;27.30;;;14.60;;
52184;SDS011;38160;52.876;18.778;2023-03-05T21:36:07;23.50;;;14.30;;
52184;SDS011;38160;52.876;18.778;2023-03-05T21:38:44;31.10;;;14.00;;
52184;SDS011;38160;52.876;18.778;2023-03-05T21:41:20;29.90;;;17.30;;
52184;SDS011;38160;52.876;18.778;2023-03-05T21:43:58;29.40;;;15.50;;
52184;SDS011;38160;52.876;18.778;2023-03-05T21:46:36;28.90;;;16.50;;
52184;SDS011;38160;52.876;18.778;2023-03-05T21:49:14;28.90;;;16.80;;
52184;SDS011;38160;52.876;18.778;2023-03-05T21:51:50;28.90;;;15.40;;
52184;SDS011;38160;52.876;18.778;2023-03-05T21:54:37;29.40;;;17.80;;
52184;SDS011;38160;52.876;18.778;2023-03-05T21:57:14;26.40;;;15.70;;
52184;SDS011;38160;52.876;18.778;2023-03-05T21:59:51;31.90;;;17.40;;
52184;SDS011;38160;52.876;18.778;2023-03-05T22:02:27;31.90;;;17.30;;
52184;SDS011;38160;52.876;18.778;2023-03-05T22:05:03;32.70;;;17.20;;
52184;SDS011;38160;52.876;18.778;2023-03-05T22:07:44;32.30;;;17.30;;
52184;SDS011;38160;52.876;18.778;2023-03-05T22:10:20;34.10;;;17.50;;
52184;SDS011;38160;52.876;18.778;2023-03-05T22:12:57;34.50;;;16.80;;
52184;SDS011;38160;52.876;18.778;2023-03-05T22:15:45;38.10;;;19.30;;
52184;SDS011;38160;52.876;18.778;2023-03-05T22:18:25;35.90;;;18.80;;
52184;SDS011;38160;52.876;18.778;2023-03-05T22:21:03;35.50;;;18.60;;
52184;SDS011;38160;52.876;18.778;2023-03-05T22:23:49;36.30;;;18.10;;
52184;SDS011;38160;52.876;18.778;2023-03-05T22:26:31;37.70;;;17.40;;
52184;SDS011;38160;52.876;18.778;2023-03-05T22:29:09;35.90;;;18.40;;
52184;SDS011;38160;52.876;18.778;2023-03-05T22:31:45;32.10;;;17.00;;
52184;SDS011;38160;52.876;18.778;2023-03-05T22:34:21;29.50;;;17.70;;
52184;SDS011;38160;52.876;18.778;2023-03-05T22:36:57;31.80;;;17.10;;
52184;SDS011;38160;52.876;18.778;2023-03-05T22:39:34;35.60;;;18.00;;
52184;SDS011;38160;52.876;18.778;2023-03-05T22:42:10;29.90;;;15.90;;
52184;SDS011;38160;52.876;18.778;2023-03-05T22:44:46;30.40;;;16.50;;
52184;SDS011;38160;52.876;18.778;2023-03-05T22:47:22;32.30;;;16.00;;
52184;SDS011;38160;52.876;18.778;2023-03-05T22:49:59;25.60;;;14.30;;
52184;SDS011;38160;52.876;18.778;2023-03-05T22:52:35;30.60;;;16.00;;
52184;SDS011;38160;52.876;18.778;2023-03-05T22:55:12;29.00;;;15.30;;
52184;SDS011;38160;52.876;18.778;2023-03-05T22:57:49;27.70;;;14.80;;
52184;SDS011;38160;52.876;18.778;2023-03-05T23:00:25;30.20;;;15.50;;
52184;SDS011;38160;52.876;18.778;2023-03-05T23:03:01;28.20;;;15.00;;
52184;SDS011;38160;52.876;18.778;2023-03-05T23:05:38;29.70;;;16.60;;
52184;SDS011;38160;52.876;18.778;2023-03-05T23:08:14;25.30;;;16.50;;
52184;SDS011;38160;52.876;18.778;2023-03-05T23:10:50;33.50;;;17.30;;
52184;SDS011;38160;52.876;18.778;2023-03-05T23:13:26;29.70;;;17.80;;
52184;SDS011;38160;52.876;18.778;2023-03-05T23:16:02;38.80;;;19.90;;
52184;SDS011;38160;52.876;18.778;2023-03-05T23:18:39;33.50;;;19.60;;
52184;SDS011;38160;52.876;18.778;2023-03-05T23:21:15;38.50;;;20.10;;
52184;SDS011;38160;52.876;18.778;2023-03-05T23:23:52;33.90;;;19.60;;
52184;SDS011;38160;52.876;18.778;2023-03-05T23:26:29;38.50;;;20.70;;
52184;SDS011;38160;52.876;18.778;2023-03-05T23:29:06;37.30;;;19.60;;
52184;SDS011;38160;52.876;18.778;2023-03-05T23:31:42;34.70;;;20.80;;
52184;SDS011;38160;52.876;18.778;2023-03-05T23:34:18;29.30;;;18.40;;
52184;SDS011;38160;52.876;18.778;2023-03-05T23:36:54;35.60;;;20.50;;
52184;SDS011;38160;52.876;18.778;2023-03-05T23:39:33;40.10;;;20.40;;
52184;SDS011;38160;52.876;18.778;2023-03-05T23:42:09;38.10;;;20.10;;
52184;SDS011;38160;52.876;18.778;2023-03-05T23:44:45;49.30;;;21.70;;
52184;SDS011;38160;52.876;18.778;2023-03-05T23:47:21;44.00;;;21.90;;
52184;SDS011;38160;52.876;18.778;2023-03-05T23:49:57;41.60;;;21.80;;
52184;SDS011;38160;52.876;18.778;2023-03-05T23:52:33;38.70;;;21.50;;
52184;SDS011;38160;52.876;18.778;2023-03-05T23:55:11;41.10;;;19.50;;
52184;SDS011;38160;52.876;18.778;2023-03-05T23:57:50;39.20;;;18.90;;
